Terminal Aerodrome Forecast
Issued by NWS Grand Forks, ND

Home | Current Version | Previous Version | Text Only | Print | Product List | Glossary Off
Versions: 1 2 3 4 5 6 7 8 9 10 11 12 13 14 15 16 17 18 19 20

136
FTUS43 KFGF 210520
TAFGFK
TAF
KGFK 210520Z 2106/2206 36017G25KT P6SM SCT080
     FM211200 36014KT P6SM FEW250
     FM212200 01009KT P6SM FEW250=

USA.gov is the U.S. government's official web portal to all federal, state and local government web resources and services.